Time;durP1;ratioP1;P1;durP2;ratioP2;P2;SDS_P1;SDS_P2;PMS_P1;PMS_P2;Temp;Humidity;BMP_temperature;BMP_pressure;BME280_temperature;BME280_humidity;BME280_pressure;Samples;Min_cycle;Max_cycle;Signal;HPM_P1;HPM_P2
2023/10/11 00:00:51;;;;;;;;;;;;;;;;;;5074127;28;19931;-75
2023/10/11 00:03:32;;;;;;;;;;;;;;;;;;5074173;28;19985;-74
2023/10/11 00:05:59;;;;;;;;;;;;;;;;;;5074041;28;19925;-74
2023/10/11 00:08:26;;;;;;;;;;;;;;;;;;5087646;28;19971;-74
2023/10/11 00:10:53;;;;;;;;;;;;;;;;;;5086117;28;19925;-74
2023/10/11 00:13:20;;;;;;;;;;;;;;;;;;5074802;28;19978;-74
2023/10/11 00:15:49;;;;;;;;;;;;;;;;;;5074268;28;19925;-74
2023/10/11 00:18:17;;;;;;;;;;;;;;;;;;5074436;28;19931;-74
2023/10/11 00:20:57;;;;;;;;;;;;;;;;;;5074316;28;19971;-74
2023/10/11 00:23:24;;;;;;;;;;;;;;;;;;5074631;28;20007;-74
2023/10/11 00:25:51;;;;;;;;;;;;;;;;;;5072192;28;20426;-74
2023/10/11 00:28:23;;;;;;;;;;;;;;;;;;5074027;28;19929;-74
2023/10/11 00:30:49;;;;;;;;;;;;;;;;;;5073281;28;19935;-74
2023/10/11 00:33:16;;;;;;;;;;;;;;;;;;5072861;28;19925;-74
2023/10/11 00:35:47;;;;;;;;;;;;;;;;;;5073255;28;19936;-74
2023/10/11 00:38:18;;;;;;;;;;;;;;;;;;5072599;28;19925;-74
2023/10/11 00:40:45;;;;;;;;;;;;;;;;;;5072430;28;19924;-74
2023/10/11 00:43:12;;;;;;;;;;;;;;;;;;5072964;28;19978;-75
2023/10/11 00:45:39;;;;;;;;;;;;;;;;;;5092969;28;20294;-75
2023/10/11 00:48:10;;;;;;;;;;;;;;;;;;5086129;28;19931;-74
2023/10/11 00:50:38;;;;;;;;;;;;;;;;;;5073543;28;19975;-75
2023/10/11 00:53:05;;;;;;;;;;;;;;;;;;5073520;28;19930;-74
2023/10/11 00:55:32;;;;;;;;;;;;;;;;;;5073373;28;19933;-74
2023/10/11 00:57:58;;;;;;;;;;;;;;;;;;5071653;28;19925;-74
2023/10/11 01:00:26;;;;;;;;;;;;;;;;;;5068720;28;19929;-73
2023/10/11 01:02:54;;;;;;;;;;;;;;;;;;5069435;28;19924;-75
2023/10/11 01:05:22;;;;;;;;;;;;;;;;;;5073538;28;20406;-74
2023/10/11 01:07:50;;;;;;;;;;;;;;;;;;5068800;28;19928;-74
2023/10/11 01:10:17;;;;;;;;;;;;;;;;;;5093762;28;19924;-74
2023/10/11 01:12:44;;;;;;;;;;;;;;;;;;5078695;28;19924;-74
2023/10/11 01:15:12;;;;;;;;;;;;;;;;;;5072958;28;20468;-74
2023/10/11 01:17:39;;;;;;;;;;;;;;;;;;5073844;28;20318;-74
2023/10/11 01:20:13;;;;;;;;;;;;;;;;;;5070492;28;19924;-74
2023/10/11 01:22:40;;;;;;;;;;;;;;;;;;5070078;28;19967;-74
2023/10/11 01:25:07;;;;;;;;;;;;;;;;;;5068721;28;20304;-74
2023/10/11 01:27:36;;;;;;;;;;;;;;;;;;5069674;28;19994;-73
2023/10/11 01:30:07;;;;;;;;;;;;;;;;;;5070634;28;19924;-74
2023/10/11 01:32:34;;;;;;;;;;;;;;;;;;5071496;28;19924;-75
2023/10/11 01:35:02;;;;;;;;;;;;;;;;;;5071502;28;19932;-73
2023/10/11 01:37:34;;;;;;;;;;;;;;;;;;5072081;28;19930;-73
2023/10/11 01:40:05;;;;;;;;;;;;;;;;;;5073466;28;19986;-73
2023/10/11 01:42:32;;;;;;;;;;;;;;;;;;5071310;28;19924;-74
2023/10/11 01:45:00;;;;;;;;;;;;;;;;;;5072869;28;19970;-73
2023/10/11 01:47:27;;;;;;;;;;;;;;;;;;5071329;28;20418;-74
2023/10/11 01:49:54;;;;;;;;;;;;;;;;;;5071673;28;19924;-73
2023/10/11 01:52:21;;;;;;;;;;;;;;;;;;5071693;28;19924;-74
2023/10/11 01:54:48;;;;;;;;;;;;;;;;;;5072757;28;19982;-74
2023/10/11 01:57:16;;;;;;;;;;;;;;;;;;5071461;28;19924;-73
2023/10/11 01:59:43;;;;;;;;;;;;;;;;;;5072602;28;19924;-74
2023/10/11 02:02:11;;;;;;;;;;;;;;;;;;5068999;28;19947;-74
2023/10/11 02:04:40;;;;;;;;;;;;;;;;;;5072946;28;19924;-74
2023/10/11 02:07:07;;;;;;;;;;;;;;;;;;5071825;28;19928;-74
2023/10/11 02:09:34;;;;;;;;;;;;;;;;;;5071861;28;19925;-73
2023/10/11 02:12:01;;;;;;;;;;;;;;;;;;5069602;28;19931;-74
2023/10/11 02:14:29;;;;;;;;;;;;;;;;;;5071970;28;20014;-73
2023/10/11 02:16:56;;;;;;;;;;;;;;;;;;5072571;28;19974;-74
2023/10/11 02:19:24;;;;;;;;;;;;;;;;;;5071817;28;19924;-73
2023/10/11 02:21:53;;;;;;;;;;;;;;;;;;5071241;28;20008;-74
2023/10/11 02:24:20;;;;;;;;;;;;;;;;;;5072510;28;19993;-73
2023/10/11 02:26:49;;;;;;;;;;;;;;;;;;5070710;28;19925;-74
2023/10/11 02:29:20;;;;;;;;;;;;;;;;;;5070992;28;19928;-74
2023/10/11 02:31:50;;;;;;;;;;;;;;;;;;5070101;28;19996;-73
2023/10/11 02:34:17;;;;;;;;;;;;;;;;;;5072191;28;19924;-74
2023/10/11 02:36:44;;;;;;;;;;;;;;;;;;5070948;28;19924;-74
2023/10/11 02:39:17;;;;;;;;;;;;;;;;;;5072426;28;19933;-73
2023/10/11 02:41:45;;;;;;;;;;;;;;;;;;5071140;28;19986;-74
2023/10/11 02:44:13;;;;;;;;;;;;;;;;;;5070557;28;19974;-74
2023/10/11 02:46:42;;;;;;;;;;;;;;;;;;5070152;28;19947;-74
2023/10/11 02:49:18;;;;;;;;;;;;;;;;;;5071198;28;19924;-73
2023/10/11 02:51:52;;;;;;;;;;;;;;;;;;5071378;28;19929;-73
2023/10/11 02:54:19;;;;;;;;;;;;;;;;;;5071129;28;20398;-74
2023/10/11 02:56:47;;;;;;;;;;;;;;;;;;5072263;28;19970;-73
2023/10/11 02:59:19;;;;;;;;;;;;;;;;;;5070535;28;19931;-74
2023/10/11 03:01:46;;;;;;;;;;;;;;;;;;5073711;28;19924;-73
2023/10/11 03:04:15;;;;;;;;;;;;;;;;;;5055849;28;19966;-73
2023/10/11 03:06:49;;;;;;;;;;;;;;;;;;5072576;28;20389;-73
2023/10/11 03:09:18;;;;;;;;;;;;;;;;;;5075598;28;19932;-73
2023/10/11 03:11:46;;;;;;;;;;;;;;;;;;5065504;28;19925;-74
2023/10/11 03:14:13;;;;;;;;;;;;;;;;;;5071606;28;19971;-73
2023/10/11 03:16:42;;;;;;;;;;;;;;;;;;5074709;28;20342;-73
2023/10/11 03:19:10;;;;;;;;;;;;;;;;;;5074948;28;20487;-73
2023/10/11 03:21:37;;;;;;;;;;;;;;;;;;5072653;28;20391;-73
2023/10/11 03:24:05;;;;;;;;;;;;;;;;;;5074790;28;19960;-73
2023/10/11 03:26:33;;;;;;;;;;;;;;;;;;5074437;28;19931;-73
2023/10/11 03:29:03;;;;;;;;;;;;;;;;;;5071885;28;20265;-73
2023/10/11 03:31:31;;;;;;;;;;;;;;;;;;5076451;28;19929;-74
2023/10/11 03:33:59;;;;;;;;;;;;;;;;;;5077453;28;20371;-73
2023/10/11 03:36:32;;;;;;;;;;;;;;;;;;5077656;28;19978;-74
2023/10/11 03:39:08;;;;;;;;;;;;;;;;;;5075335;28;19979;-74
2023/10/11 03:41:36;;;;;;;;;;;;;;;;;;5074728;28;19924;-74
2023/10/11 03:44:09;;;;;;;;;;;;;;;;;;5073480;28;19924;-74
2023/10/11 03:46:36;;;;;;;;;;;;;;;;;;5081418;28;19924;-74
2023/10/11 03:51:56;;;;;;;;;;;;;;;;;;5074898;28;19924;-71
2023/10/11 03:54:23;;;;;;;;;;;;;;;;;;5074621;28;19970;-73
2023/10/11 03:56:52;;;;;;;;;;;;;;;;;;5074056;28;19986;-72
2023/10/11 03:59:20;;;;;;;;;;;;;;;;;;5072811;28;19924;-72
2023/10/11 04:01:47;;;;;;;;;;;;;;;;;;5072217;28;19924;-72
2023/10/11 04:04:14;;;;;;;;;;;;;;;;;;5055020;28;19962;-72
2023/10/11 04:06:42;;;;;;;;;;;;;;;;;;5070862;28;19970;-72
2023/10/11 04:09:22;;;;;;;;;;;;;;;;;;5072701;28;20421;-72
2023/10/11 04:11:54;;;;;;;;;;;;;;;;;;5073510;28;19928;-72
2023/10/11 04:14:25;;;;;;;;;;;;;;;;;;5072745;28;19924;-72
2023/10/11 04:16:55;;;;;;;;;;;;;;;;;;5072242;28;19931;-72
2023/10/11 04:19:22;;;;;;;;;;;;;;;;;;5073011;28;19944;-72
2023/10/11 04:21:55;;;;;;;;;;;;;;;;;;5073862;28;19924;-72
2023/10/11 04:24:22;;;;;;;;;;;;;;;;;;5091202;28;19924;-72
2023/10/11 04:26:53;;;;;;;;;;;;;;;;;;5076438;28;19935;-72
2023/10/11 04:29:23;;;;;;;;;;;;;;;;;;5070430;28;19928;-72
2023/10/11 04:32:09;;;;;;;;;;;;;;;;;;5072901;28;19947;-72
2023/10/11 04:34:38;;;;;;;;;;;;;;;;;;5074020;28;20595;-72
2023/10/11 04:37:07;;;;;;;;;;;;;;;;;;5075310;28;19925;-72
2023/10/11 04:39:34;;;;;;;;;;;;;;;;;;5073029;28;20011;-72
2023/10/11 04:42:02;;;;;;;;;;;;;;;;;;5074115;28;20268;-72
2023/10/11 04:44:34;;;;;;;;;;;;;;;;;;5071193;28;20368;-73
2023/10/11 04:47:01;;;;;;;;;;;;;;;;;;5072944;28;19935;-73
2023/10/11 04:49:30;;;;;;;;;;;;;;;;;;5075325;28;20384;-73
2023/10/11 04:51:57;;;;;;;;;;;;;;;;;;5073775;28;19932;-73
2023/10/11 04:54:35;;;;;;;;;;;;;;;;;;5073859;28;19924;-73
2023/10/11 04:57:06;;;;;;;;;;;;;;;;;;5072784;28;20291;-73
2023/10/11 04:59:37;;;;;;;;;;;;;;;;;;5069009;28;19934;-73
2023/10/11 05:02:08;;;;;;;;;;;;;;;;;;5071893;28;19932;-73
2023/10/11 05:04:41;;;;;;;;;;;;;;;;;;5073942;28;19924;-72
2023/10/11 05:07:09;;;;;;;;;;;;;;;;;;5073512;28;19925;-75
2023/10/11 05:09:39;;;;;;;;;;;;;;;;;;5062041;28;19925;-73
2023/10/11 05:12:09;;;;;;;;;;;;;;;;;;5054388;28;19970;-72
2023/10/11 05:14:39;;;;;;;;;;;;;;;;;;5060939;28;19999;-74
2023/10/11 05:17:32;;;;;;;;;;;;;;;;;;5074258;28;19967;-74
2023/10/11 05:20:22;;;;;;;;;;;;;;;;;;5072588;28;19932;-74
2023/10/11 05:22:49;;;;;;;;;;;;;;;;;;5071741;28;20437;-74
2023/10/11 05:25:37;;;;;;;;;;;;;;;;;;5081950;28;19928;-74
2023/10/11 05:31:00;;;;;;;;;;;;;;;;;;5059480;28;19924;-73
2023/10/11 05:33:41;;;;;;;;;;;;;;;;;;5073160;28;19924;-73
2023/10/11 05:36:17;;;;;;;;;;;;;;;;;;5063964;28;19936;-72
2023/10/11 05:52:28;;;;;;;;;;;;;;;;;;5060318;28;19918;-73
2023/10/11 05:54:56;;;;;;;;;;;;;;;;;;5092497;28;19981;-73
2023/10/11 05:57:27;;;;;;;;;;;;;;;;;;5078453;28;19932;-72
2023/10/11 05:59:55;;;;;;;;;;;;;;;;;;5066428;28;19971;-72
2023/10/11 06:02:22;;;;;;;;;;;;;;;;;;5062398;28;19932;-72
2023/10/11 06:04:50;;;;;;;;;;;;;;;;;;5069000;28;19924;-73
2023/10/11 06:07:19;;;;;;;;;;;;;;;;;;5065090;28;19964;-72
2023/10/11 06:09:46;;;;;;;;;;;;;;;;;;5077067;28;19946;-72
2023/10/11 06:12:23;;;;;;;;;;;;;;;;;;5072842;28;20514;-72
2023/10/11 06:14:51;;;;;;;;;;;;;;;;;;5069601;28;19928;-72
2023/10/11 06:17:21;;;;;;;;;;;;;;;;;;5069758;28;19924;-73
2023/10/11 06:19:53;;;;;;;;;;;;;;;;;;5066550;28;19925;-72
2023/10/11 06:22:21;;;;;;;;;;;;;;;;;;5070362;28;19932;-73
2023/10/11 06:24:48;;;;;;;;;;;;;;;;;;5069956;28;19924;-72
2023/10/11 06:30:06;;;;;;;;;;;;;;;;;;5063067;28;20391;-72
2023/10/11 06:32:35;;;;;;;;;;;;;;;;;;5068847;28;19964;-74
2023/10/11 06:35:05;;;;;;;;;;;;;;;;;;5065656;28;19997;-73
2023/10/11 06:37:35;;;;;;;;;;;;;;;;;;5074390;28;19928;-72
2023/10/11 06:40:13;;;;;;;;;;;;;;;;;;5075935;28;19958;-73
2023/10/11 06:42:40;;;;;;;;;;;;;;;;;;5075237;28;20363;-72
2023/10/11 06:45:16;;;;;;;;;;;;;;;;;;5075924;28;19931;-72
2023/10/11 06:47:47;;;;;;;;;;;;;;;;;;5075726;28;19929;-72
2023/10/11 06:50:14;;;;;;;;;;;;;;;;;;5073573;28;19924;-73
2023/10/11 06:52:43;;;;;;;;;;;;;;;;;;5075635;28;19928;-72
2023/10/11 06:55:16;;;;;;;;;;;;;;;;;;5069571;28;19963;-73
2023/10/11 06:57:45;;;;;;;;;;;;;;;;;;5075699;28;19924;-73
2023/10/11 07:00:21;;;;;;;;;;;;;;;;;;5068172;28;19928;-72
2023/10/11 07:02:48;;;;;;;;;;;;;;;;;;5074970;28;19926;-72
2023/10/11 07:05:19;;;;;;;;;;;;;;;;;;5073160;28;19978;-72
2023/10/11 07:07:48;;;;;;;;;;;;;;;;;;5072792;28;19986;-73
2023/10/11 07:10:28;;;;;;;;;;;;;;;;;;5094286;28;19936;-73
2023/10/11 07:13:03;;;;;;;;;;;;;;;;;;5067742;28;19924;-71
2023/10/11 07:15:31;;;;;;;;;;;;;;;;;;5067387;28;20467;-71
2023/10/11 07:17:58;;;;;;;;;;;;;;;;;;5074585;28;19932;-72
2023/10/11 07:20:47;;;;;;;;;;;;;;;;;;5074896;28;20019;-72
2023/10/11 07:23:19;;;;;;;;;;;;;;;;;;5073754;28;19977;-74
2023/10/11 07:25:48;;;;;;;;;;;;;;;;;;5074262;28;19951;-73
2023/10/11 07:28:35;;;;;;;;;;;;;;;;;;5074189;28;19925;-71
2023/10/11 07:31:03;;;;;;;;;;;;;;;;;;5073994;28;19932;-73
2023/10/11 07:33:30;;;;;;;;;;;;;;;;;;5074252;28;19925;-73
2023/10/11 07:35:59;;;;;;;;;;;;;;;;;;5075227;28;19928;-73
2023/10/11 07:38:32;;;;;;;;;;;;;;;;;;5074316;28;19966;-73
2023/10/11 07:40:59;;;;;;;;;;;;;;;;;;5074487;28;19931;-73
2023/10/11 07:43:32;;;;;;;;;;;;;;;;;;5075546;28;19924;-72
2023/10/11 07:45:59;;;;;;;;;;;;;;;;;;5071788;28;19956;-72
2023/10/11 07:48:29;;;;;;;;;;;;;;;;;;5074265;28;19924;-72
2023/10/11 07:50:57;;;;;;;;;;;;;;;;;;5073544;28;20272;-72
2023/10/11 07:53:25;;;;;;;;;;;;;;;;;;5073459;28;19924;-72
2023/10/11 07:55:57;;;;;;;;;;;;;;;;;;5074287;28;19924;-72
2023/10/11 07:58:32;;;;;;;;;;;;;;;;;;5073533;28;20015;-72
2023/10/11 08:01:02;;;;;;;;;;;;;;;;;;5073253;28;19924;-73
2023/10/11 08:03:34;;;;;;;;;;;;;;;;;;5074756;28;19925;-73
2023/10/11 08:06:05;;;;;;;;;;;;;;;;;;5075309;28;19956;-73
2023/10/11 08:08:32;;;;;;;;;;;;;;;;;;5059758;28;19925;-72
2023/10/11 08:11:06;;;;;;;;;;;;;;;;;;5061945;28;20019;-73
2023/10/11 08:13:33;;;;;;;;;;;;;;;;;;5073404;28;20019;-73
2023/10/11 08:16:05;;;;;;;;;;;;;;;;;;5072121;28;19947;-73
2023/10/11 08:18:32;;;;;;;;;;;;;;;;;;5074730;28;20338;-72
2023/10/11 08:21:00;;;;;;;;;;;;;;;;;;5069463;28;19970;-73
2023/10/11 08:23:30;;;;;;;;;;;;;;;;;;5073164;28;19925;-74
2023/10/11 08:25:57;;;;;;;;;;;;;;;;;;5074165;28;19924;-75
2023/10/11 08:28:29;;;;;;;;;;;;;;;;;;5074375;28;20371;-74
2023/10/11 08:30:58;;;;;;;;;;;;;;;;;;5071786;28;20014;-73
2023/10/11 08:33:25;;;;;;;;;;;;;;;;;;5073722;28;19924;-73
2023/10/11 08:35:53;;;;;;;;;;;;;;;;;;5074442;28;19929;-74
2023/10/11 08:38:20;;;;;;;;;;;;;;;;;;5073390;28;19952;-74
2023/10/11 08:40:50;;;;;;;;;;;;;;;;;;5071980;28;19976;-74
2023/10/11 08:43:17;;;;;;;;;;;;;;;;;;5071298;28;20338;-75
2023/10/11 08:45:44;;;;;;;;;;;;;;;;;;5057192;28;19982;-74
2023/10/11 08:48:11;;;;;;;;;;;;;;;;;;5073352;28;19994;-75
2023/10/11 08:50:40;;;;;;;;;;;;;;;;;;5071404;28;20328;-74
2023/10/11 08:53:08;;;;;;;;;;;;;;;;;;5071939;28;19928;-74
2023/10/11 08:55:36;;;;;;;;;;;;;;;;;;5071832;28;19924;-74
2023/10/11 08:58:04;;;;;;;;;;;;;;;;;;5071572;28;19931;-74
2023/10/11 09:00:33;;;;;;;;;;;;;;;;;;5070752;28;19969;-74
2023/10/11 09:03:03;;;;;;;;;;;;;;;;;;5071996;28;19969;-75
2023/10/11 09:05:32;;;;;;;;;;;;;;;;;;5072285;28;19939;-74
2023/10/11 09:08:02;;;;;;;;;;;;;;;;;;5071632;28;19925;-75
2023/10/11 09:10:29;;;;;;;;;;;;;;;;;;5071049;28;20272;-75
2023/10/11 09:12:59;;;;;;;;;;;;;;;;;;5072291;28;20356;-75
2023/10/11 09:15:26;;;;;;;;;;;;;;;;;;5068701;28;19932;-75
2023/10/11 09:17:53;;;;;;;;;;;;;;;;;;5059643;28;20336;-76
2023/10/11 09:20:25;;;;;;;;;;;;;;;;;;5076701;28;19924;-74
2023/10/11 09:22:55;;;;;;;;;;;;;;;;;;5072937;28;20008;-74
2023/10/11 09:25:24;;;;;;;;;;;;;;;;;;5056908;28;20012;-75
2023/10/11 09:27:51;;;;;;;;;;;;;;;;;;5071235;28;20032;-75
2023/10/11 09:30:20;;;;;;;;;;;;;;;;;;5069165;28;20529;-74
2023/10/11 09:32:51;;;;;;;;;;;;;;;;;;5067669;28;19980;-75
2023/10/11 09:35:23;;;;;;;;;;;;;;;;;;5072074;28;19925;-75
2023/10/11 09:37:50;;;;;;;;;;;;;;;;;;5070877;28;19924;-74
2023/10/11 09:40:18;;;;;;;;;;;;;;;;;;5070971;28;19925;-75
2023/10/11 09:42:45;;;;;;;;;;;;;;;;;;5069579;28;19924;-75
2023/10/11 09:45:16;;;;;;;;;;;;;;;;;;5069755;28;19924;-75
2023/10/11 09:47:43;;;;;;;;;;;;;;;;;;5069384;28;19974;-74
2023/10/11 09:50:15;;;;;;;;;;;;;;;;;;5069808;28;19932;-74
2023/10/11 09:52:45;;;;;;;;;;;;;;;;;;5070407;28;19925;-74
2023/10/11 09:55:17;;;;;;;;;;;;;;;;;;5055673;28;19929;-74
2023/10/11 09:57:50;;;;;;;;;;;;;;;;;;5057892;28;19946;-75
2023/10/11 10:00:17;;;;;;;;;;;;;;;;;;5063840;28;19925;-74
2023/10/11 10:02:46;;;;;;;;;;;;;;;;;;5071932;28;19934;-74
2023/10/11 10:05:13;;;;;;;;;;;;;;;;;;5069850;28;19925;-74
2023/10/11 10:07:44;;;;;;;;;;;;;;;;;;5071482;28;19925;-75
2023/10/11 10:10:11;;;;;;;;;;;;;;;;;;5071327;28;19960;-75
2023/10/11 10:12:40;;;;;;;;;;;;;;;;;;5069379;28;20384;-74
2023/10/11 10:15:12;;;;;;;;;;;;;;;;;;5068094;28;19930;-76
2023/10/11 10:17:39;;;;;;;;;;;;;;;;;;5071489;28;19972;-76
2023/10/11 10:20:06;;;;;;;;;;;;;;;;;;5071097;28;20019;-73
2023/10/11 10:22:33;;;;;;;;;;;;;;;;;;5070262;28;20015;-74
2023/10/11 10:25:00;;;;;;;;;;;;;;;;;;5071160;28;20047;-75
2023/10/11 10:27:32;;;;;;;;;;;;;;;;;;5071772;28;19924;-75
2023/10/11 10:29:59;;;;;;;;;;;;;;;;;;5068826;28;19932;-74
2023/10/11 10:32:27;;;;;;;;;;;;;;;;;;5061679;28;20372;-73
2023/10/11 10:34:54;;;;;;;;;;;;;;;;;;5070958;28;19931;-74
2023/10/11 10:37:21;;;;;;;;;;;;;;;;;;5070142;28;20363;-79
2023/10/11 10:39:48;;;;;;;;;;;;;;;;;;5068120;28;19924;-73
2023/10/11 10:42:15;;;;;;;;;;;;;;;;;;5071547;28;19929;-76
2023/10/11 10:44:41;;;;;;;;;;;;;;;;;;5069341;28;20019;-74
2023/10/11 10:47:09;;;;;;;;;;;;;;;;;;5071155;28;19990;-74
2023/10/11 10:49:36;;;;;;;;;;;;;;;;;;5071478;28;19924;-74
2023/10/11 10:52:04;;;;;;;;;;;;;;;;;;5070244;28;19928;-74
2023/10/11 10:54:32;;;;;;;;;;;;;;;;;;5069068;28;19931;-74
2023/10/11 10:57:03;;;;;;;;;;;;;;;;;;5069995;28;19924;-74
2023/10/11 10:59:29;;;;;;;;;;;;;;;;;;5069784;28;20028;-74
2023/10/11 11:01:57;;;;;;;;;;;;;;;;;;5070281;28;20023;-75
2023/10/11 11:04:23;;;;;;;;;;;;;;;;;;5070627;28;19938;-74
2023/10/11 11:06:50;;;;;;;;;;;;;;;;;;5069710;28;20422;-74
2023/10/11 11:09:19;;;;;;;;;;;;;;;;;;5069176;28;20434;-75
2023/10/11 11:11:46;;;;;;;;;;;;;;;;;;5068013;28;20015;-76
2023/10/11 11:14:13;;;;;;;;;;;;;;;;;;5066140;28;20411;-75
2023/10/11 11:16:41;;;;;;;;;;;;;;;;;;5068543;28;19970;-75
2023/10/11 11:19:08;;;;;;;;;;;;;;;;;;5066188;28;20088;-75
2023/10/11 11:21:44;;;;;;;;;;;;;;;;;;5063579;28;20015;-75
2023/10/11 11:24:14;;;;;;;;;;;;;;;;;;5072598;28;19929;-74
2023/10/11 11:26:41;;;;;;;;;;;;;;;;;;5074590;28;19928;-75
2023/10/11 11:29:11;;;;;;;;;;;;;;;;;;5074139;28;20348;-74
2023/10/11 11:31:40;;;;;;;;;;;;;;;;;;5068596;28;19925;-74
2023/10/11 11:34:07;;;;;;;;;;;;;;;;;;5067775;28;19932;-74
2023/10/11 11:36:34;;;;;;;;;;;;;;;;;;5069646;28;19924;-76
2023/10/11 11:41:42;;;;;;;;;;;;;;;;;;5072080;28;19929;-76
2023/10/11 11:44:19;;;;;;;;;;;;;;;;;;5072997;28;19945;-75
2023/10/11 11:46:48;;;;;;;;;;;;;;;;;;5072422;28;20353;-74
2023/10/11 11:49:15;;;;;;;;;;;;;;;;;;5074458;28;19990;-75
2023/10/11 11:51:42;;;;;;;;;;;;;;;;;;5074236;28;19931;-75
2023/10/11 11:54:16;;;;;;;;;;;;;;;;;;5072708;28;20438;-75
2023/10/11 11:56:44;;;;;;;;;;;;;;;;;;5071519;28;20007;-75
2023/10/11 11:59:17;;;;;;;;;;;;;;;;;;5072479;28;19951;-75
2023/10/11 12:01:44;;;;;;;;;;;;;;;;;;5071950;28;20461;-74
2023/10/11 12:04:11;;;;;;;;;;;;;;;;;;5073681;28;19936;-74
2023/10/11 12:06:38;;;;;;;;;;;;;;;;;;5069503;28;19929;-74
2023/10/11 12:09:05;;;;;;;;;;;;;;;;;;5068629;28;19970;-75
2023/10/11 12:11:32;;;;;;;;;;;;;;;;;;5071800;28;20363;-76
2023/10/11 12:14:00;;;;;;;;;;;;;;;;;;5072812;28;19924;-73
2023/10/11 12:16:27;;;;;;;;;;;;;;;;;;5072396;28;20429;-75
2023/10/11 12:18:58;;;;;;;;;;;;;;;;;;5073026;28;19924;-74
2023/10/11 12:21:25;;;;;;;;;;;;;;;;;;5072372;28;19924;-75
2023/10/11 12:23:53;;;;;;;;;;;;;;;;;;5066901;28;19928;-75
2023/10/11 12:26:20;;;;;;;;;;;;;;;;;;5064664;28;19925;-75
2023/10/11 12:28:47;;;;;;;;;;;;;;;;;;5069421;28;19929;-74
2023/10/11 12:31:16;;;;;;;;;;;;;;;;;;5066946;28;19931;-74
2023/10/11 12:33:44;;;;;;;;;;;;;;;;;;5067658;28;19924;-75
2023/10/11 12:36:11;;;;;;;;;;;;;;;;;;5068918;28;19931;-75
2023/10/11 12:38:39;;;;;;;;;;;;;;;;;;5075331;28;19933;-74
2023/10/11 12:41:07;;;;;;;;;;;;;;;;;;5064467;28;20461;-74
2023/10/11 12:43:34;;;;;;;;;;;;;;;;;;5068456;28;19958;-75
2023/10/11 12:46:01;;;;;;;;;;;;;;;;;;5068364;28;20307;-73
2023/10/11 12:48:28;;;;;;;;;;;;;;;;;;5074305;22;19925;-75
2023/10/11 12:50:57;;;;;;;;;;;;;;;;;;5065319;28;20316;-75
2023/10/11 12:53:28;;;;;;;;;;;;;;;;;;5060046;28;20015;-75
2023/10/11 12:55:57;;;;;;;;;;;;;;;;;;5063684;28;20211;-75
2023/10/11 12:58:27;;;;;;;;;;;;;;;;;;5060911;28;20360;-75
2023/10/11 13:00:58;;;;;;;;;;;;;;;;;;5058722;28;19979;-75
2023/10/11 13:03:26;;;;;;;;;;;;;;;;;;5064703;28;20415;-75
2023/10/11 13:05:53;;;;;;;;;;;;;;;;;;5060851;28;20019;-75
2023/10/11 13:08:24;;;;;;;;;;;;;;;;;;5061140;28;20002;-74
2023/10/11 13:10:51;;;;;;;;;;;;;;;;;;5063499;28;20487;-74
2023/10/11 13:13:18;;;;;;;;;;;;;;;;;;5059836;28;19928;-74
2023/10/11 13:15:55;;;;;;;;;;;;;;;;;;5053432;28;20354;-74
2023/10/11 13:18:22;;;;;;;;;;;;;;;;;;5061893;28;19925;-74
2023/10/11 13:20:49;;;;;;;;;;;;;;;;;;5059078;28;19981;-74
2023/10/11 13:23:16;;;;;;;;;;;;;;;;;;5058944;28;19985;-74
2023/10/11 13:25:45;;;;;;;;;;;;;;;;;;5062724;28;19975;-74
2023/10/11 13:28:14;;;;;;;;;;;;;;;;;;5063746;28;20015;-74
2023/10/11 13:30:41;;;;;;;;;;;;;;;;;;5058776;28;19932;-75
2023/10/11 13:33:09;;;;;;;;;;;;;;;;;;5064327;28;19976;-75
2023/10/11 13:35:36;;;;;;;;;;;;;;;;;;5053430;28;20462;-75
2023/10/11 13:38:11;;;;;;;;;;;;;;;;;;5061977;28;19925;-75
2023/10/11 13:40:38;;;;;;;;;;;;;;;;;;5069200;28;19928;-75
2023/10/11 13:43:05;;;;;;;;;;;;;;;;;;5069501;28;20038;-75
2023/10/11 13:45:32;;;;;;;;;;;;;;;;;;5070184;28;19929;-75
2023/10/11 13:48:04;;;;;;;;;;;;;;;;;;5069112;28;19925;-75
2023/10/11 13:50:36;;;;;;;;;;;;;;;;;;5064597;28;19928;-75
2023/10/11 13:53:04;;;;;;;;;;;;;;;;;;5075579;28;20303;-75
2023/10/11 13:55:39;;;;;;;;;;;;;;;;;;5052759;28;19929;-75
2023/10/11 13:58:06;;;;;;;;;;;;;;;;;;5054577;28;20019;-75
2023/10/11 14:06:30;;;;;;;;;;;;;;;;;;5032588;28;20326;-75
2023/10/11 14:08:59;;;;;;;;;;;;;;;;;;5059670;28;19959;-75
2023/10/11 14:11:26;;;;;;;;;;;;;;;;;;5077083;28;20304;-74
2023/10/11 14:13:53;;;;;;;;;;;;;;;;;;5026777;28;19933;-73
2023/10/11 14:16:27;;;;;;;;;;;;;;;;;;5020581;28;19961;-75
2023/10/11 14:18:54;;;;;;;;;;;;;;;;;;5048511;28;19924;-73
2023/10/11 14:21:23;;;;;;;;;;;;;;;;;;5024954;28;19948;-75
2023/10/11 14:23:51;;;;;;;;;;;;;;;;;;5046989;28;19941;-75
2023/10/11 14:26:18;;;;;;;;;;;;;;;;;;5014622;28;19925;-73
2023/10/11 14:28:45;;;;;;;;;;;;;;;;;;5017680;28;19926;-74
2023/10/11 14:31:12;;;;;;;;;;;;;;;;;;5015218;28;19929;-75
2023/10/11 14:33:39;;;;;;;;;;;;;;;;;;5025485;28;19928;-74
2023/10/11 14:36:07;;;;;;;;;;;;;;;;;;5020898;28;19946;-75
2023/10/11 14:38:35;;;;;;;;;;;;;;;;;;5024956;28;19926;-76
2023/10/11 14:41:05;;;;;;;;;;;;;;;;;;5017437;28;19970;-76
2023/10/11 14:43:34;;;;;;;;;;;;;;;;;;5013566;28;19933;-75
2023/10/11 14:46:01;;;;;;;;;;;;;;;;;;5024400;28;19962;-74
2023/10/11 14:48:28;;;;;;;;;;;;;;;;;;5018178;28;20392;-74
2023/10/11 14:50:55;;;;;;;;;;;;;;;;;;5014276;28;19929;-75
2023/10/11 14:53:24;;;;;;;;;;;;;;;;;;5014771;28;20028;-74
2023/10/11 14:55:54;;;;;;;;;;;;;;;;;;5027697;28;20012;-74
2023/10/11 14:58:24;;;;;;;;;;;;;;;;;;5018391;28;19936;-75
2023/10/11 15:00:53;;;;;;;;;;;;;;;;;;5013150;28;19925;-76
2023/10/11 15:03:21;;;;;;;;;;;;;;;;;;5016949;28;20378;-75
2023/10/11 15:05:48;;;;;;;;;;;;;;;;;;5038141;28;19929;-76
2023/10/11 15:08:16;;;;;;;;;;;;;;;;;;5055432;28;19932;-76
2023/10/11 15:10:43;;;;;;;;;;;;;;;;;;5027457;28;20003;-76
2023/10/11 15:13:11;;;;;;;;;;;;;;;;;;5036969;28;19929;-76
2023/10/11 15:15:38;;;;;;;;;;;;;;;;;;5023614;28;19972;-74
2023/10/11 15:18:05;;;;;;;;;;;;;;;;;;5003294;28;19930;-73
2023/10/11 15:20:32;;;;;;;;;;;;;;;;;;5010141;28;20380;-73
2023/10/11 15:23:00;;;;;;;;;;;;;;;;;;5044981;28;19930;-74
2023/10/11 15:25:27;;;;;;;;;;;;;;;;;;5022239;28;21018;-75
2023/10/11 15:27:55;;;;;;;;;;;;;;;;;;5008406;28;20087;-76
2023/10/11 15:30:22;;;;;;;;;;;;;;;;;;5049384;28;19940;-77
2023/10/11 15:32:49;;;;;;;;;;;;;;;;;;5084298;28;19955;-75
2023/10/11 15:35:17;;;;;;;;;;;;;;;;;;5048186;28;19924;-75
2023/10/11 15:37:46;;;;;;;;;;;;;;;;;;5076812;28;19961;-79
2023/10/11 15:40:14;;;;;;;;;;;;;;;;;;5004508;28;19930;-75
2023/10/11 15:42:41;;;;;;;;;;;;;;;;;;5054905;28;20016;-76
2023/10/11 15:45:09;;;;;;;;;;;;;;;;;;5029216;28;19925;-75
2023/10/11 15:47:36;;;;;;;;;;;;;;;;;;5009522;28;19955;-75
2023/10/11 15:50:04;;;;;;;;;;;;;;;;;;5028233;28;19934;-76
2023/10/11 15:52:31;;;;;;;;;;;;;;;;;;5051169;28;20005;-75
2023/10/11 15:54:58;;;;;;;;;;;;;;;;;;5007552;28;20604;-75
2023/10/11 15:57:25;;;;;;;;;;;;;;;;;;5050976;28;19923;-77
2023/10/11 15:59:52;;;;;;;;;;;;;;;;;;5033561;27;19961;-76
2023/10/11 16:02:21;;;;;;;;;;;;;;;;;;5007465;28;20081;-75
2023/10/11 16:04:49;;;;;;;;;;;;;;;;;;5028579;28;19925;-75
2023/10/11 16:07:17;;;;;;;;;;;;;;;;;;5042466;28;19990;-74
2023/10/11 16:09:44;;;;;;;;;;;;;;;;;;5009311;28;19931;-75
2023/10/11 16:12:12;;;;;;;;;;;;;;;;;;5019085;28;19926;-75
2023/10/11 16:14:41;;;;;;;;;;;;;;;;;;5042171;28;20017;-76
2023/10/11 16:17:08;;;;;;;;;;;;;;;;;;5004123;28;19933;-76
2023/10/11 16:19:36;;;;;;;;;;;;;;;;;;5018972;28;19925;-76
2023/10/11 16:22:03;;;;;;;;;;;;;;;;;;5001912;28;19944;-74
2023/10/11 16:24:31;;;;;;;;;;;;;;;;;;5012347;28;19932;-74
2023/10/11 16:26:58;;;;;;;;;;;;;;;;;;5001550;28;20008;-75
2023/10/11 16:29:25;;;;;;;;;;;;;;;;;;5010195;28;19978;-76
2023/10/11 16:31:52;;;;;;;;;;;;;;;;;;5029239;28;19930;-75
2023/10/11 16:34:19;;;;;;;;;;;;;;;;;;5017393;28;20891;-75
2023/10/11 16:36:46;;;;;;;;;;;;;;;;;;5057344;28;20398;-75
2023/10/11 16:39:16;;;;;;;;;;;;;;;;;;5002547;28;19948;-75
2023/10/11 16:41:43;;;;;;;;;;;;;;;;;;5006137;28;20372;-75
2023/10/11 16:44:13;;;;;;;;;;;;;;;;;;5005420;28;19979;-75
2023/10/11 16:46:40;;;;;;;;;;;;;;;;;;5007436;28;20123;-75
2023/10/11 16:49:10;;;;;;;;;;;;;;;;;;5007189;28;19925;-76
2023/10/11 16:51:37;;;;;;;;;;;;;;;;;;4998940;28;19926;-77
2023/10/11 16:54:06;;;;;;;;;;;;;;;;;;5005812;28;19926;-76
2023/10/11 16:56:33;;;;;;;;;;;;;;;;;;5036486;28;19930;-75
2023/10/11 16:59:01;;;;;;;;;;;;;;;;;;5009382;28;19935;-75
2023/10/11 17:01:28;;;;;;;;;;;;;;;;;;5003050;28;20369;-75
2023/10/11 17:03:56;;;;;;;;;;;;;;;;;;5006135;28;19926;-75
2023/10/11 17:06:24;;;;;;;;;;;;;;;;;;5101649;28;19930;-76
2023/10/11 17:08:51;;;;;;;;;;;;;;;;;;5055581;28;19926;-74
2023/10/11 17:11:17;;;;;;;;;;;;;;;;;;5075416;28;19936;-75
2023/10/11 17:13:44;;;;;;;;;;;;;;;;;;5073949;28;19925;-75
2023/10/11 17:16:13;;;;;;;;;;;;;;;;;;5015018;28;20022;-76
2023/10/11 17:18:40;;;;;;;;;;;;;;;;;;5005770;28;19930;-74
2023/10/11 17:21:07;;;;;;;;;;;;;;;;;;5005264;28;19956;-75
2023/10/11 17:23:34;;;;;;;;;;;;;;;;;;5008485;28;19933;-75
2023/10/11 17:26:01;;;;;;;;;;;;;;;;;;5017932;28;20466;-75
2023/10/11 17:28:28;;;;;;;;;;;;;;;;;;5000294;28;19925;-76